TimeCDT,TemperatureF,Dew PointF,Humidity,Sea Level PressureIn,VisibilityMPH,Wind Direction,Wind SpeedMPH,Gust SpeedMPH,PrecipitationIn,Events,Conditions,WindDirDegrees,DateUTC
12:53 AM,57.9,55.0,90,29.52,10.0,WSW,11.5,-,N/A,,Partly Cloudy,250,2013-05-20 05:53:00
1:53 AM,59.0,57.0,93,29.54,10.0,West,13.8,-,N/A,,Mostly Cloudy,260,2013-05-20 06:53:00
2:12 AM,59.0,55.4,88,29.56,10.0,NW,24.2,33.4,N/A,,Scattered Clouds,310,2013-05-20 07:12:00
2:53 AM,57.9,55.0,90,29.53,10.0,NNW,21.9,35.7,N/A,,Overcast,330,2013-05-20 07:53:00
3:31 AM,57.2,55.4,94,29.59,10.0,WNW,17.3,24.2,N/A,,Overcast,300,2013-05-20 08:31:00
3:53 AM,57.0,54.0,89,29.56,10.0,NW,17.3,-,N/A,,Mostly Cloudy,310,2013-05-20 08:53:00
4:01 AM,57.2,53.6,88,29.59,10.0,NW,15.0,-,N/A,,Scattered Clouds,310,2013-05-20 09:01:00
4:53 AM,57.0,53.1,87,29.58,10.0,WNW,11.5,-,N/A,,Overcast,290,2013-05-20 09:53:00
5:53 AM,57.2,53.6,88,29.64,10.0,West,10.4,-,N/A,,Overcast,260,2013-05-20 10:53:00
6:53 AM,57.0,53.1,87,29.65,10.0,WSW,10.4,-,N/A,,Overcast,250,2013-05-20 11:53:00
7:53 AM,59.0,54.0,83,29.66,10.0,WSW,12.7,-,0.00,,Overcast,250,2013-05-20 12:53:00
8:53 AM,60.1,54.0,80,29.66,10.0,West,12.7,-,N/A,,Overcast,260,2013-05-20 13:53:00
9:53 AM,64.0,54.0,70,29.65,10.0,WSW,16.1,-,N/A,,Partly Cloudy,250,2013-05-20 14:53:00
10:53 AM,66.0,54.0,65,29.65,10.0,SW,16.1,24.2,N/A,,Mostly Cloudy,230,2013-05-20 15:53:00
11:53 AM,69.1,54.0,58,29.63,10.0,WSW,21.9,31.1,N/A,,Scattered Clouds,240,2013-05-20 16:53:00
12:53 PM,69.1,51.1,53,29.63,10.0,WSW,23.0,32.2,N/A,,Mostly Cloudy,240,2013-05-20 17:53:00
1:53 PM,69.1,51.1,53,29.62,10.0,WSW,20.7,31.1,N/A,,Overcast,250,2013-05-20 18:53:00
2:53 PM,70.0,48.0,46,29.61,10.0,WSW,24.2,-,N/A,,Mostly Cloudy,250,2013-05-20 19:53:00
3:53 PM,70.0,48.9,47,29.60,10.0,West,23.0,28.8,N/A,,Overcast,260,2013-05-20 20:53:00
4:53 PM,70.0,48.0,46,29.59,10.0,WSW,21.9,29.9,N/A,,Overcast,240,2013-05-20 21:53:00
5:53 PM,68.0,48.9,50,29.59,10.0,West,17.3,26.5,N/A,,Overcast,270,2013-05-20 22:53:00
6:53 PM,66.0,50.0,56,29.60,10.0,West,20.7,26.5,N/A,,Mostly Cloudy,260,2013-05-20 23:53:00
7:53 PM,62.1,52.0,70,29.60,10.0,West,21.9,33.4,N/A,,Partly Cloudy,270,2013-05-21 00:53:00
8:26 PM,60.8,53.6,77,29.64,10.0,West,20.7,33.4,N/A,,Mostly Cloudy,270,2013-05-21 01:26:00
8:53 PM,57.2,55.4,94,29.65,8.0,WNW,18.4,27.6,N/A,,Overcast,290,2013-05-21 01:53:00
9:00 PM,59.0,55.4,88,29.65,10.0,WNW,16.1,25.3,N/A,,Overcast,290,2013-05-21 02:00:00
9:42 PM,59.0,53.6,82,29.67,10.0,WNW,16.1,-,N/A,,Overcast,290,2013-05-21 02:42:00
9:53 PM,59.0,54.0,83,29.65,10.0,WNW,13.8,-,N/A,,Overcast,290,2013-05-21 02:53:00
10:22 PM,59.0,53.6,82,29.69,10.0,WNW,15.0,-,N/A,,Overcast,290,2013-05-21 03:22:00
10:53 PM,59.0,53.1,81,29.68,10.0,WNW,13.8,-,N/A,,Overcast,290,2013-05-21 03:53:00
11:34 PM,57.2,51.8,82,29.71,10.0,WNW,12.7,-,N/A,,Overcast,290,2013-05-21 04:34:00
11:53 PM,57.9,52.0,81,29.69,10.0,WNW,12.7,-,N/A,,Overcast,290,2013-05-21 04:53:00